createdAt,value
2017-12-31T00:00:16.500Z,0.00
2017-12-31T00:01:16.498Z,0.00
2017-12-31T00:02:16.478Z,0.00
2017-12-31T00:03:16.473Z,0.00
2017-12-31T00:04:16.464Z,0.00
2017-12-31T00:05:16.460Z,0.00
2017-12-31T00:06:16.447Z,0.00
2017-12-31T00:07:16.475Z,0.00
2017-12-31T00:08:16.434Z,0.00
2017-12-31T00:09:16.426Z,0.00
2017-12-31T00:10:16.415Z,0.00
2017-12-31T00:11:16.407Z,0.00
2017-12-31T00:12:16.406Z,0.00
2017-12-31T00:13:16.411Z,0.00
2017-12-31T00:14:16.389Z,0.00
2017-12-31T00:15:16.377Z,0.00
2017-12-31T00:16:16.372Z,0.00
2017-12-31T00:17:16.357Z,0.00
2017-12-31T00:18:16.348Z,0.00
2017-12-31T00:19:16.346Z,0.00
2017-12-31T00:20:16.343Z,0.00
2017-12-31T00:21:16.330Z,0.00
2017-12-31T00:22:16.321Z,0.00
2017-12-31T00:23:16.308Z,0.00
2017-12-31T00:24:16.299Z,0.00
2017-12-31T00:25:16.297Z,0.00
2017-12-31T00:26:16.293Z,0.00
2017-12-31T00:27:16.285Z,0.00
2017-12-31T00:28:16.284Z,0.00
2017-12-31T00:29:16.261Z,0.00
2017-12-31T00:30:16.250Z,0.00
2017-12-31T00:31:16.249Z,0.00
2017-12-31T00:32:16.240Z,0.00
2017-12-31T00:33:16.244Z,0.00
2017-12-31T00:34:16.227Z,0.00
2017-12-31T00:35:16.230Z,0.00
2017-12-31T00:36:16.203Z,0.00
2017-12-31T00:37:16.194Z,0.00
2017-12-31T00:38:16.184Z,0.00
2017-12-31T00:39:16.185Z,0.00
2017-12-31T00:40:16.177Z,0.00
2017-12-31T00:41:16.190Z,0.00
2017-12-31T00:42:16.153Z,0.00
2017-12-31T00:43:16.147Z,0.00
2017-12-31T00:44:16.141Z,0.00
2017-12-31T00:45:16.131Z,0.00
2017-12-31T00:46:16.123Z,0.00
2017-12-31T00:47:16.119Z,0.00
2017-12-31T00:48:16.110Z,0.00
2017-12-31T00:49:16.106Z,0.00
2017-12-31T00:50:16.093Z,0.00
2017-12-31T00:51:16.080Z,0.00
2017-12-31T00:52:16.079Z,0.00
2017-12-31T00:53:16.076Z,0.00
2017-12-31T00:54:16.070Z,0.00
2017-12-31T00:55:16.067Z,0.00
2017-12-31T00:56:16.043Z,0.00
2017-12-31T00:57:16.039Z,0.00
2017-12-31T00:58:16.068Z,0.00
2017-12-31T00:59:16.036Z,0.00
2017-12-31T01:00:16.030Z,0.00
2017-12-31T01:01:16.006Z,0.00
2017-12-31T01:02:15.993Z,0.00
2017-12-31T01:03:15.989Z,0.00
2017-12-31T01:04:15.970Z,0.00
2017-12-31T01:05:15.966Z,0.00
2017-12-31T01:06:15.959Z,0.00
2017-12-31T01:07:15.961Z,0.00
2017-12-31T01:08:15.954Z,0.00
2017-12-31T01:09:15.961Z,0.00
2017-12-31T01:10:15.927Z,0.00
2017-12-31T01:11:15.918Z,0.00
2017-12-31T01:12:15.907Z,0.00
2017-12-31T01:13:15.897Z,0.00
2017-12-31T01:14:15.907Z,0.00
2017-12-31T01:15:15.881Z,0.00
2017-12-31T01:16:15.886Z,0.00
2017-12-31T01:17:15.866Z,0.00
2017-12-31T01:18:15.859Z,0.00
2017-12-31T01:19:15.852Z,0.00
2017-12-31T01:20:15.843Z,0.00
2017-12-31T01:21:15.834Z,0.00
2017-12-31T01:22:15.825Z,0.00
2017-12-31T01:23:15.816Z,0.00
2017-12-31T01:24:15.845Z,0.00
2017-12-31T01:25:15.809Z,0.00
2017-12-31T01:26:15.797Z,0.00
2017-12-31T01:27:15.856Z,0.00
2017-12-31T01:28:15.809Z,0.00
2017-12-31T01:29:15.774Z,0.00
2017-12-31T01:30:15.762Z,0.00
2017-12-31T01:31:15.755Z,0.00
2017-12-31T01:33:53.167Z,0.00
2017-12-31T01:34:53.131Z,0.00
2017-12-31T01:36:50.668Z,0.00
2017-12-31T01:37:50.659Z,0.00
2017-12-31T01:38:50.647Z,0.00
2017-12-31T01:39:50.662Z,0.00
2017-12-31T01:40:50.633Z,0.00
2017-12-31T01:41:50.625Z,0.00
2017-12-31T01:42:50.615Z,0.00
2017-12-31T01:43:50.607Z,0.00
2017-12-31T01:44:50.601Z,0.00
2017-12-31T01:45:50.593Z,0.00
2017-12-31T01:46:50.583Z,0.00
2017-12-31T01:47:50.577Z,0.00
2017-12-31T01:48:50.566Z,0.00
2017-12-31T01:49:50.558Z,0.00
2017-12-31T01:50:50.576Z,0.00
2017-12-31T01:51:50.546Z,0.00
2017-12-31T01:52:50.766Z,0.00
2017-12-31T01:53:50.537Z,0.00
2017-12-31T01:54:50.516Z,0.00
2017-12-31T01:55:50.554Z,0.00
2017-12-31T01:56:50.514Z,0.00
2017-12-31T01:57:50.783Z,0.00
2017-12-31T01:58:50.502Z,0.00
2017-12-31T01:59:50.485Z,0.00
2017-12-31T02:00:50.472Z,0.00
2017-12-31T02:01:50.460Z,0.00
2017-12-31T02:02:50.465Z,0.00
2017-12-31T02:03:50.442Z,0.00
2017-12-31T02:04:50.436Z,0.00
2017-12-31T02:05:50.424Z,0.00
2017-12-31T02:06:50.415Z,0.00
2017-12-31T02:07:50.411Z,0.00
2017-12-31T02:08:50.411Z,0.00
2017-12-31T02:09:50.409Z,0.00
2017-12-31T02:10:50.389Z,0.00
2017-12-31T02:11:50.376Z,0.00
2017-12-31T02:12:50.410Z,0.00
2017-12-31T02:13:50.356Z,0.00
2017-12-31T02:14:50.358Z,0.00
2017-12-31T02:15:50.345Z,0.00
2017-12-31T02:16:50.335Z,0.00
2017-12-31T02:17:50.329Z,0.00
2017-12-31T02:18:50.315Z,0.00
2017-12-31T02:19:50.317Z,0.00
2017-12-31T02:20:50.305Z,0.00
2017-12-31T02:21:50.332Z,0.00
2017-12-31T02:22:51.001Z,0.00
2017-12-31T02:23:50.273Z,0.00
2017-12-31T02:24:50.265Z,0.00
2017-12-31T02:25:50.259Z,0.00
2017-12-31T02:26:50.285Z,0.00
2017-12-31T02:27:50.240Z,0.00
2017-12-31T02:28:50.233Z,0.00
2017-12-31T02:29:50.228Z,0.00
2017-12-31T02:30:50.230Z,0.00
2017-12-31T02:31:50.206Z,0.00
2017-12-31T02:32:50.199Z,0.00
2017-12-31T02:33:50.193Z,0.00
2017-12-31T02:34:50.183Z,0.00
2017-12-31T02:35:50.246Z,0.00
2017-12-31T02:36:50.168Z,0.00
2017-12-31T02:37:50.154Z,0.00
2017-12-31T02:38:50.152Z,0.00
2017-12-31T02:39:50.145Z,0.00
2017-12-31T02:40:52.230Z,0.00
2017-12-31T02:41:50.144Z,0.00
2017-12-31T02:42:50.118Z,0.00
2017-12-31T02:43:50.154Z,0.00
2017-12-31T02:44:50.096Z,0.00
2017-12-31T02:45:50.097Z,0.00
2017-12-31T02:46:50.080Z,0.00
2017-12-31T02:47:50.098Z,0.00
2017-12-31T02:48:50.069Z,0.00
2017-12-31T02:49:50.080Z,0.00
2017-12-31T02:50:50.049Z,0.00
2017-12-31T02:51:50.043Z,0.00
2017-12-31T02:52:50.029Z,0.00
2017-12-31T02:53:50.025Z,0.00
2017-12-31T02:54:50.027Z,0.00
2017-12-31T02:55:50.001Z,0.00
2017-12-31T02:56:50.010Z,0.00
2017-12-31T02:57:49.987Z,0.00
2017-12-31T02:58:49.987Z,0.00
2017-12-31T02:59:49.978Z,0.00
2017-12-31T03:00:49.978Z,0.00
2017-12-31T03:01:49.963Z,0.00
2017-12-31T03:02:49.947Z,0.00
2017-12-31T03:03:49.934Z,0.00
2017-12-31T03:04:49.925Z,0.00
2017-12-31T03:05:49.914Z,0.00
2017-12-31T03:06:49.903Z,0.00
2017-12-31T03:07:49.903Z,0.00
2017-12-31T03:08:49.902Z,0.00
2017-12-31T03:09:49.891Z,0.00
2017-12-31T03:10:49.874Z,0.00
2017-12-31T03:11:49.865Z,0.00
2017-12-31T03:12:49.859Z,0.00
2017-12-31T03:13:49.861Z,0.00
2017-12-31T03:14:49.836Z,0.00
2017-12-31T03:15:49.832Z,0.00
2017-12-31T03:16:49.824Z,0.00
2017-12-31T03:17:49.820Z,0.00
2017-12-31T03:18:49.832Z,0.00
2017-12-31T03:19:49.807Z,0.00
2017-12-31T03:20:49.798Z,0.00
2017-12-31T03:21:49.779Z,0.00
2017-12-31T03:22:49.782Z,0.00
2017-12-31T03:23:49.766Z,0.00
2017-12-31T03:24:49.777Z,0.00
2017-12-31T03:25:49.751Z,0.00
2017-12-31T03:26:49.743Z,0.00
2017-12-31T03:27:49.724Z,0.00
2017-12-31T03:28:49.730Z,0.00
2017-12-31T03:29:49.724Z,0.00
2017-12-31T03:30:49.702Z,0.00
2017-12-31T03:31:49.706Z,0.00
2017-12-31T03:32:49.682Z,0.00
2017-12-31T03:33:51.580Z,0.00
2017-12-31T03:34:49.672Z,0.00
2017-12-31T03:35:49.669Z,0.00
2017-12-31T03:36:49.665Z,0.00
2017-12-31T03:37:49.642Z,0.00
2017-12-31T03:38:49.658Z,0.00
2017-12-31T03:39:49.645Z,0.00
2017-12-31T03:40:49.644Z,0.00
2017-12-31T03:41:49.629Z,0.00
2017-12-31T03:42:49.606Z,0.00
2017-12-31T03:43:49.625Z,0.00
2017-12-31T03:44:49.600Z,0.00
2017-12-31T03:45:49.587Z,0.00
2017-12-31T03:46:49.588Z,0.00
2017-12-31T03:47:49.554Z,0.00
2017-12-31T03:48:49.569Z,0.00
2017-12-31T03:49:49.567Z,0.00
2017-12-31T03:50:49.546Z,0.00
2017-12-31T03:51:49.564Z,0.00
2017-12-31T03:52:49.528Z,0.00
2017-12-31T03:53:49.508Z,0.00
2017-12-31T03:54:49.495Z,0.00
2017-12-31T03:55:49.491Z,0.00
2017-12-31T03:56:49.480Z,0.00
2017-12-31T03:57:49.496Z,0.00
2017-12-31T03:58:49.483Z,0.00
2017-12-31T03:59:49.498Z,0.00
2017-12-31T04:00:49.455Z,0.00
2017-12-31T04:01:49.436Z,0.00
2017-12-31T04:02:49.440Z,0.00
2017-12-31T04:03:49.421Z,0.00
2017-12-31T04:04:49.437Z,0.00
2017-12-31T04:05:49.413Z,0.00
2017-12-31T04:06:49.393Z,0.00
2017-12-31T04:07:49.387Z,0.00
2017-12-31T04:08:49.377Z,0.00
2017-12-31T04:09:49.374Z,0.00
2017-12-31T04:10:49.373Z,0.00
2017-12-31T04:11:49.357Z,0.00
2017-12-31T04:12:49.348Z,0.00
2017-12-31T04:13:49.352Z,0.00
2017-12-31T04:14:49.327Z,0.00
2017-12-31T04:15:49.316Z,0.00
2017-12-31T04:16:49.303Z,0.00
2017-12-31T04:17:49.313Z,0.00
2017-12-31T04:18:49.323Z,0.00
2017-12-31T04:19:49.295Z,0.00
2017-12-31T04:20:49.272Z,0.00
2017-12-31T04:21:49.266Z,0.00
2017-12-31T04:22:49.261Z,0.00
2017-12-31T04:23:49.259Z,0.00
2017-12-31T04:24:49.251Z,0.00
2017-12-31T04:25:49.228Z,0.00
2017-12-31T04:26:49.229Z,0.00
2017-12-31T04:27:49.213Z,0.00
2017-12-31T04:28:49.201Z,0.00
2017-12-31T04:29:49.209Z,0.00
2017-12-31T04:30:49.190Z,0.00
2017-12-31T04:31:49.177Z,0.00
2017-12-31T04:32:49.173Z,0.00
2017-12-31T04:33:49.185Z,0.00
2017-12-31T04:34:51.092Z,0.00
2017-12-31T04:35:49.142Z,0.00
2017-12-31T04:36:49.162Z,0.00
2017-12-31T04:37:49.129Z,0.00
2017-12-31T04:38:49.117Z,0.00
2017-12-31T04:39:49.122Z,0.00
2017-12-31T04:40:49.099Z,0.00
2017-12-31T04:41:51.594Z,0.00
2017-12-31T04:42:49.080Z,0.00
2017-12-31T04:43:49.083Z,0.00
2017-12-31T04:44:49.070Z,0.00
2017-12-31T04:45:49.058Z,0.00
2017-12-31T04:46:49.047Z,0.00
2017-12-31T04:47:49.039Z,0.00
2017-12-31T04:48:49.031Z,0.00
2017-12-31T04:49:49.019Z,0.00
2017-12-31T04:50:49.012Z,0.00
2017-12-31T04:51:49.003Z,0.00
2017-12-31T04:52:48.997Z,0.00
2017-12-31T04:53:48.989Z,0.00
2017-12-31T04:54:48.975Z,0.00
2017-12-31T04:55:48.968Z,0.00
2017-12-31T04:56:48.969Z,0.00
2017-12-31T04:57:48.955Z,0.00
2017-12-31T04:58:48.943Z,0.00
2017-12-31T04:59:48.936Z,0.00
2017-12-31T05:00:48.927Z,0.00
2017-12-31T05:01:48.921Z,0.00
2017-12-31T05:02:48.909Z,0.00
2017-12-31T05:03:48.896Z,0.00
2017-12-31T05:04:48.899Z,0.00
2017-12-31T05:05:48.886Z,0.00
2017-12-31T05:06:48.876Z,0.00
2017-12-31T05:07:48.870Z,0.00
2017-12-31T05:08:48.861Z,0.00
2017-12-31T05:09:48.845Z,0.00
2017-12-31T05:10:48.836Z,0.00
2017-12-31T05:11:48.854Z,0.00
2017-12-31T05:12:48.821Z,0.00
2017-12-31T05:13:48.819Z,0.00
2017-12-31T05:14:48.804Z,0.00
2017-12-31T05:15:48.804Z,0.00
2017-12-31T05:16:48.818Z,0.00
2017-12-31T05:17:48.783Z,0.00
2017-12-31T05:18:48.781Z,0.00
2017-12-31T05:19:48.766Z,0.00
2017-12-31T05:20:48.755Z,0.00
2017-12-31T05:21:48.748Z,0.00
2017-12-31T05:22:48.739Z,0.00
2017-12-31T05:23:48.732Z,0.00
2017-12-31T05:24:48.731Z,0.00
2017-12-31T05:25:48.710Z,0.00
2017-12-31T05:26:48.703Z,0.00
2017-12-31T05:27:48.711Z,0.00
2017-12-31T05:28:48.691Z,0.00
2017-12-31T05:29:48.680Z,0.00
2017-12-31T05:30:48.666Z,0.00
2017-12-31T05:31:48.658Z,0.00
2017-12-31T05:32:48.647Z,0.00
2017-12-31T05:33:48.669Z,0.00
2017-12-31T05:34:48.634Z,0.00
2017-12-31T05:35:48.626Z,0.00
2017-12-31T05:36:48.624Z,0.00
2017-12-31T05:37:48.602Z,0.00
2017-12-31T05:38:48.603Z,0.00
2017-12-31T05:39:48.590Z,0.00
2017-12-31T05:40:48.610Z,0.00
2017-12-31T05:41:48.576Z,0.00
2017-12-31T05:42:48.563Z,0.00
2017-12-31T05:43:48.553Z,0.00
2017-12-31T05:44:48.544Z,0.00
2017-12-31T05:45:48.539Z,0.00
2017-12-31T05:46:48.530Z,0.00
2017-12-31T05:47:48.520Z,0.00
2017-12-31T05:48:48.514Z,0.00
2017-12-31T05:49:48.510Z,0.00
2017-12-31T05:50:48.493Z,0.00
2017-12-31T05:51:48.489Z,0.00
2017-12-31T05:52:48.481Z,0.00
2017-12-31T05:53:48.472Z,0.00
2017-12-31T05:54:48.467Z,0.00
2017-12-31T05:55:48.451Z,0.00
2017-12-31T05:56:48.448Z,0.00
2017-12-31T05:57:48.440Z,0.00
2017-12-31T05:58:48.427Z,0.00
2017-12-31T05:59:48.452Z,0.00
2017-12-31T06:00:50.112Z,0.00
2017-12-31T06:01:48.452Z,0.00
2017-12-31T06:02:48.400Z,0.00
2017-12-31T06:03:48.392Z,0.00
2017-12-31T06:04:48.378Z,0.00
2017-12-31T06:05:48.372Z,0.00
2017-12-31T06:06:48.365Z,0.00
2017-12-31T06:07:48.352Z,0.00
2017-12-31T06:08:48.360Z,0.00
2017-12-31T06:09:48.337Z,0.00
2017-12-31T06:10:48.331Z,0.00
2017-12-31T06:11:48.318Z,0.00
2017-12-31T06:12:48.329Z,0.00
2017-12-31T06:13:48.309Z,0.00
2017-12-31T06:14:48.296Z,0.00
2017-12-31T06:15:48.287Z,0.00
2017-12-31T06:16:48.283Z,0.00
2017-12-31T06:17:48.272Z,0.00
2017-12-31T06:18:48.264Z,0.00
2017-12-31T06:19:48.260Z,0.00
2017-12-31T06:20:48.260Z,0.00
2017-12-31T06:21:48.259Z,0.00
2017-12-31T06:22:48.237Z,0.00
2017-12-31T06:23:48.228Z,0.00
2017-12-31T06:24:48.237Z,0.00
2017-12-31T06:25:48.207Z,0.00
2017-12-31T06:26:48.209Z,0.00
2017-12-31T06:27:48.215Z,0.00
2017-12-31T06:28:48.191Z,0.00
2017-12-31T06:29:48.183Z,0.00
2017-12-31T06:30:48.168Z,0.00
2017-12-31T06:31:48.153Z,0.00
2017-12-31T06:32:48.153Z,0.00
2017-12-31T06:33:48.147Z,0.00
2017-12-31T06:34:48.141Z,0.00
2017-12-31T06:35:48.128Z,0.00
2017-12-31T06:36:48.129Z,0.00
2017-12-31T06:37:48.112Z,0.00
2017-12-31T06:38:48.104Z,0.00
2017-12-31T06:39:48.114Z,0.00
2017-12-31T06:40:48.090Z,0.00
2017-12-31T06:41:48.101Z,0.00
2017-12-31T06:42:48.070Z,0.00
2017-12-31T06:43:48.076Z,0.00
2017-12-31T06:44:48.077Z,0.00
2017-12-31T06:45:48.050Z,0.00
2017-12-31T06:46:48.036Z,0.00
2017-12-31T06:47:48.032Z,0.00
2017-12-31T06:48:48.021Z,0.00
2017-12-31T06:49:48.018Z,0.00
2017-12-31T06:50:48.010Z,0.00
2017-12-31T06:51:48.005Z,0.00
2017-12-31T06:52:47.991Z,0.00
2017-12-31T06:53:47.986Z,0.00
2017-12-31T06:54:50.627Z,0.00
2017-12-31T06:55:47.985Z,0.00
2017-12-31T06:56:47.962Z,0.00
2017-12-31T06:57:47.953Z,0.00
2017-12-31T06:58:47.959Z,0.00
2017-12-31T06:59:47.935Z,0.00
2017-12-31T07:00:47.939Z,0.00
2017-12-31T07:01:47.933Z,0.00
2017-12-31T07:02:47.939Z,0.00
2017-12-31T07:03:47.911Z,0.00
2017-12-31T07:04:47.902Z,0.00
2017-12-31T07:05:47.888Z,0.00
2017-12-31T07:06:47.915Z,0.00
2017-12-31T07:07:47.870Z,0.00
2017-12-31T07:08:47.891Z,0.00
2017-12-31T07:09:47.860Z,0.00
2017-12-31T07:10:47.856Z,0.00
2017-12-31T07:11:47.840Z,0.00
2017-12-31T07:12:47.837Z,0.00
2017-12-31T07:13:47.870Z,4.00
2017-12-31T07:14:47.821Z,4.00
2017-12-31T07:15:47.844Z,4.00
2017-12-31T07:16:47.803Z,8.00
2017-12-31T07:17:47.811Z,8.00
2017-12-31T07:18:47.790Z,12.00
2017-12-31T07:19:47.801Z,8.00
2017-12-31T07:20:47.777Z,8.00
2017-12-31T07:21:47.763Z,8.00
2017-12-31T07:22:47.777Z,4.00
2017-12-31T07:23:47.777Z,8.00
2017-12-31T07:24:47.741Z,8.00
2017-12-31T07:25:47.737Z,8.00
2017-12-31T07:26:47.739Z,12.00
2017-12-31T07:27:47.743Z,8.00
2017-12-31T07:28:47.728Z,12.00
2017-12-31T07:29:47.719Z,16.00
2017-12-31T07:30:47.719Z,16.00
2017-12-31T07:31:47.713Z,16.00
2017-12-31T07:32:47.677Z,16.00
2017-12-31T07:33:47.671Z,20.00
2017-12-31T07:34:47.676Z,28.00
2017-12-31T07:35:47.685Z,56.00
2017-12-31T07:36:47.666Z,64.00
2017-12-31T07:37:47.640Z,68.00
2017-12-31T07:38:47.653Z,72.00
2017-12-31T07:39:47.653Z,68.00
2017-12-31T07:40:47.614Z,56.00
2017-12-31T07:41:47.631Z,64.00
2017-12-31T07:42:47.614Z,72.00
2017-12-31T07:43:47.596Z,68.00
2017-12-31T07:44:47.586Z,76.00
2017-12-31T07:45:47.591Z,88.00
2017-12-31T07:46:47.572Z,100.00
2017-12-31T07:47:47.590Z,92.00
2017-12-31T07:48:47.553Z,100.00
2017-12-31T07:49:47.560Z,116.00
2017-12-31T07:50:47.557Z,120.00
2017-12-31T07:51:47.529Z,116.00
2017-12-31T07:52:47.573Z,100.00
2017-12-31T07:53:47.525Z,92.00
2017-12-31T07:54:47.511Z,104.00
2017-12-31T07:55:47.538Z,144.00
2017-12-31T07:56:47.492Z,144.00
2017-12-31T07:57:47.500Z,172.00
2017-12-31T07:58:47.472Z,156.00
2017-12-31T07:59:47.479Z,160.00
2017-12-31T08:00:47.478Z,160.00
2017-12-31T08:01:47.454Z,144.00
2017-12-31T08:02:47.443Z,164.00
2017-12-31T08:03:47.441Z,204.00
2017-12-31T08:04:47.433Z,228.00
2017-12-31T08:05:47.419Z,244.00
2017-12-31T08:06:47.417Z,232.00
2017-12-31T08:07:47.407Z,228.00
2017-12-31T08:08:47.416Z,296.00
2017-12-31T08:09:47.390Z,288.00
2017-12-31T08:10:47.382Z,280.00
2017-12-31T08:11:47.375Z,364.00
2017-12-31T08:12:47.365Z,340.00
2017-12-31T08:13:47.360Z,316.00
2017-12-31T08:14:47.350Z,312.00
2017-12-31T08:15:47.365Z,344.00
2017-12-31T08:16:47.333Z,388.00
2017-12-31T08:17:47.330Z,376.00
2017-12-31T08:18:47.326Z,464.00
2017-12-31T08:19:47.307Z,368.00
2017-12-31T08:20:47.311Z,336.00
2017-12-31T08:21:47.315Z,444.00
2017-12-31T08:22:47.303Z,380.00
2017-12-31T08:23:47.312Z,404.00
2017-12-31T08:24:47.278Z,652.00
2017-12-31T08:25:47.284Z,588.00
2017-12-31T08:26:47.258Z,580.00
2017-12-31T08:27:47.263Z,524.00
2017-12-31T08:28:47.251Z,440.00
2017-12-31T08:29:47.249Z,400.00
2017-12-31T08:30:47.226Z,396.00
2017-12-31T08:31:47.232Z,400.00
2017-12-31T08:32:47.214Z,480.00
2017-12-31T08:33:47.206Z,512.00
2017-12-31T08:34:47.195Z,572.00
2017-12-31T08:35:47.228Z,532.00
2017-12-31T08:36:47.190Z,604.00
2017-12-31T08:37:47.189Z,700.00
2017-12-31T08:38:47.167Z,676.00
2017-12-31T08:39:47.157Z,584.00
2017-12-31T08:40:47.151Z,632.00
2017-12-31T08:41:47.146Z,596.00
2017-12-31T08:42:47.134Z,684.00
2017-12-31T08:43:47.127Z,864.00
2017-12-31T08:44:47.145Z,952.00
2017-12-31T08:45:47.114Z,1100.00
2017-12-31T08:46:47.105Z,952.00
2017-12-31T08:47:47.101Z,844.00
2017-12-31T08:48:47.100Z,1100.00
2017-12-31T08:49:47.083Z,828.00
2017-12-31T08:50:47.072Z,800.00
2017-12-31T08:51:47.066Z,788.00
2017-12-31T08:52:47.056Z,876.00
2017-12-31T08:53:48.651Z,1108.00
2017-12-31T08:54:47.047Z,1260.00
2017-12-31T08:55:48.650Z,1256.00
2017-12-31T08:56:47.024Z,1112.00
2017-12-31T08:57:47.021Z,1232.00
2017-12-31T08:58:47.040Z,1280.00
2017-12-31T08:59:47.003Z,1568.00
2017-12-31T09:00:46.999Z,1944.00
2017-12-31T09:01:46.996Z,2092.00
2017-12-31T09:02:47.017Z,1780.00
2017-12-31T09:03:46.975Z,1368.00
2017-12-31T09:04:46.989Z,1176.00
2017-12-31T09:05:46.956Z,952.00
2017-12-31T09:06:46.950Z,892.00
2017-12-31T09:07:46.957Z,848.00
2017-12-31T09:08:46.945Z,1008.00
2017-12-31T09:09:46.941Z,1152.00
2017-12-31T09:10:46.937Z,1180.00
2017-12-31T09:11:46.920Z,1096.00
2017-12-31T09:12:46.915Z,1132.00
2017-12-31T09:13:46.992Z,1336.00
2017-12-31T09:14:46.886Z,1412.00
2017-12-31T09:15:46.878Z,1636.00
2017-12-31T09:16:46.886Z,1612.00
2017-12-31T09:17:46.867Z,1664.00
2017-12-31T09:18:46.858Z,1648.00
2017-12-31T09:19:46.866Z,1432.00
2017-12-31T09:20:46.840Z,1252.00
2017-12-31T09:21:46.849Z,1232.00
2017-12-31T09:22:48.680Z,1240.00
2017-12-31T09:23:46.822Z,1308.00
2017-12-31T09:24:46.813Z,1284.00
2017-12-31T09:25:46.804Z,1172.00
2017-12-31T09:26:46.803Z,1136.00
2017-12-31T09:27:46.789Z,1372.00
2017-12-31T09:28:46.824Z,1352.00
2017-12-31T09:29:46.782Z,1248.00
2017-12-31T09:30:46.780Z,1212.00
2017-12-31T09:31:46.757Z,1184.00
2017-12-31T09:32:46.764Z,1240.00
2017-12-31T09:33:46.750Z,1092.00
2017-12-31T09:34:46.742Z,1072.00
2017-12-31T09:35:46.751Z,1136.00
2017-12-31T09:36:46.765Z,1392.00
2017-12-31T09:37:46.727Z,1688.00
2017-12-31T09:38:46.706Z,1844.00
2017-12-31T09:39:46.750Z,1824.00
2017-12-31T09:40:46.701Z,1632.00
2017-12-31T09:41:46.685Z,1656.00
2017-12-31T09:42:46.686Z,1564.00
2017-12-31T09:43:46.692Z,1316.00
2017-12-31T09:44:46.667Z,1296.00
2017-12-31T09:45:46.661Z,1056.00
2017-12-31T09:46:46.645Z,976.00
2017-12-31T09:47:46.643Z,764.00
2017-12-31T09:48:46.642Z,940.00
2017-12-31T09:49:46.643Z,1004.00
2017-12-31T09:50:46.629Z,836.00
2017-12-31T09:51:46.618Z,756.00
2017-12-31T09:52:46.610Z,724.00
2017-12-31T09:53:46.593Z,672.00
2017-12-31T09:54:46.590Z,856.00
2017-12-31T09:55:46.580Z,888.00
2017-12-31T09:56:46.597Z,836.00
2017-12-31T09:57:46.577Z,764.00
2017-12-31T09:58:46.557Z,900.00
2017-12-31T09:59:46.554Z,836.00
2017-12-31T10:00:46.542Z,880.00
2017-12-31T10:01:46.538Z,1072.00
2017-12-31T10:02:46.528Z,912.00
2017-12-31T10:03:46.539Z,804.00
2017-12-31T10:04:46.533Z,772.00
2017-12-31T10:05:46.522Z,912.00
2017-12-31T10:06:46.533Z,980.00
2017-12-31T10:07:46.489Z,944.00
2017-12-31T10:08:46.488Z,816.00
2017-12-31T10:09:46.478Z,852.00
2017-12-31T10:10:46.465Z,816.00
2017-12-31T10:11:46.463Z,832.00
2017-12-31T10:12:46.460Z,796.00
2017-12-31T10:13:46.475Z,760.00
2017-12-31T10:14:46.442Z,752.00
2017-12-31T10:15:46.436Z,876.00
2017-12-31T10:16:48.172Z,852.00
2017-12-31T10:17:46.443Z,888.00
2017-12-31T10:18:46.428Z,1108.00
2017-12-31T10:19:46.408Z,980.00
2017-12-31T10:20:46.410Z,1100.00
2017-12-31T10:21:46.386Z,980.00
2017-12-31T10:22:46.380Z,908.00
2017-12-31T10:23:46.371Z,1044.00
2017-12-31T10:24:46.364Z,1196.00
2017-12-31T10:25:46.364Z,1264.00
2017-12-31T10:26:46.399Z,1392.00
2017-12-31T10:27:46.343Z,1332.00
2017-12-31T10:28:46.337Z,1188.00
2017-12-31T10:29:46.329Z,1160.00
2017-12-31T10:30:46.320Z,1128.00
2017-12-31T10:31:46.324Z,1028.00
2017-12-31T10:32:46.306Z,1188.00
2017-12-31T10:33:46.299Z,996.00
2017-12-31T10:34:46.297Z,1056.00
2017-12-31T10:35:46.283Z,1004.00
2017-12-31T10:36:46.276Z,1244.00
2017-12-31T10:37:46.264Z,1264.00
2017-12-31T10:38:46.259Z,1320.00
2017-12-31T10:39:46.256Z,1528.00
2017-12-31T10:40:46.281Z,1500.00
2017-12-31T10:41:46.237Z,1620.00
2017-12-31T10:42:46.229Z,2148.00
2017-12-31T10:43:46.225Z,2224.00
2017-12-31T10:44:46.226Z,2388.00
2017-12-31T10:45:46.228Z,2484.00
2017-12-31T10:46:46.233Z,2512.00
2017-12-31T10:47:46.197Z,3372.00
2017-12-31T10:48:47.702Z,4784.00
2017-12-31T10:49:46.187Z,4988.00
2017-12-31T10:50:46.173Z,4644.00
2017-12-31T10:51:46.193Z,7100.00
2017-12-31T10:52:46.294Z,10728.00
2017-12-31T10:53:46.177Z,10624.00
2017-12-31T10:54:46.182Z,21568.00
2017-12-31T10:55:46.164Z,24896.00
2017-12-31T10:56:46.130Z,22752.00
2017-12-31T10:57:46.121Z,7872.00
2017-12-31T10:58:46.114Z,6208.00
2017-12-31T10:59:46.105Z,6104.00
2017-12-31T11:00:46.097Z,5132.00
2017-12-31T11:01:46.091Z,5008.00
2017-12-31T11:02:46.087Z,4768.00
2017-12-31T11:03:46.080Z,4496.00
2017-12-31T11:04:46.088Z,3996.00
2017-12-31T11:05:46.065Z,4164.00
2017-12-31T11:06:46.064Z,4156.00
2017-12-31T11:07:46.098Z,2988.00
2017-12-31T11:08:46.050Z,3428.00
2017-12-31T11:09:46.039Z,3428.00
2017-12-31T11:10:46.035Z,4512.00
2017-12-31T11:11:46.034Z,6740.00
2017-12-31T11:12:46.025Z,8744.00
2017-12-31T11:13:46.012Z,7288.00
2017-12-31T11:14:46.053Z,6700.00
2017-12-31T11:15:46.002Z,4116.00
2017-12-31T11:16:46.012Z,4352.00
2017-12-31T11:17:46.013Z,3720.00
2017-12-31T11:18:45.986Z,3428.00
2017-12-31T11:19:45.994Z,3064.00
2017-12-31T11:20:45.966Z,2976.00
2017-12-31T11:21:45.970Z,2432.00
2017-12-31T11:22:45.955Z,2464.00
2017-12-31T11:23:45.949Z,2144.00
2017-12-31T11:24:45.950Z,1804.00
2017-12-31T11:25:45.952Z,2336.00
2017-12-31T11:26:45.925Z,2240.00
2017-12-31T11:27:45.933Z,1624.00
2017-12-31T11:28:45.914Z,1768.00
2017-12-31T11:29:45.908Z,2272.00
2017-12-31T11:30:45.901Z,2456.00
2017-12-31T11:31:45.891Z,2204.00
2017-12-31T11:32:49.694Z,2712.00
2017-12-31T11:33:45.924Z,4132.00
2017-12-31T11:34:45.868Z,3724.00
2017-12-31T11:35:45.874Z,2628.00
2017-12-31T11:36:45.923Z,1876.00
2017-12-31T11:37:45.910Z,2176.00
2017-12-31T11:38:45.858Z,2276.00
2017-12-31T11:39:45.838Z,2004.00
2017-12-31T11:40:45.865Z,1796.00
2017-12-31T11:41:45.820Z,3092.00
2017-12-31T11:42:45.822Z,3608.00
2017-12-31T11:43:45.820Z,4388.00
2017-12-31T11:44:47.722Z,3784.00
2017-12-31T11:45:45.795Z,3660.00
2017-12-31T11:46:45.792Z,5816.00
2017-12-31T11:47:45.781Z,6808.00
2017-12-31T11:48:45.788Z,7552.00
2017-12-31T11:49:45.794Z,5880.00
2017-12-31T11:50:45.766Z,6680.00
2017-12-31T11:51:45.753Z,6944.00
2017-12-31T11:52:45.746Z,8040.00
2017-12-31T11:53:45.739Z,6704.00
2017-12-31T11:54:45.732Z,7680.00
2017-12-31T11:55:45.722Z,6140.00
2017-12-31T11:56:45.716Z,8852.00
2017-12-31T11:57:45.706Z,5896.00
2017-12-31T11:58:45.702Z,7380.00
2017-12-31T11:59:45.697Z,5892.00
2017-12-31T12:00:45.707Z,8532.00
2017-12-31T12:01:45.682Z,10288.00
2017-12-31T12:02:45.678Z,11032.00
2017-12-31T12:03:45.670Z,8012.00
2017-12-31T12:04:45.677Z,7768.00
2017-12-31T12:05:45.660Z,8732.00
2017-12-31T12:06:45.665Z,8772.00
2017-12-31T12:07:45.656Z,6020.00
2017-12-31T12:08:45.642Z,4204.00
2017-12-31T12:09:45.634Z,4612.00
2017-12-31T12:10:45.672Z,2732.00
2017-12-31T12:11:45.622Z,3180.00
2017-12-31T12:12:47.210Z,2868.00
2017-12-31T12:13:45.602Z,3272.00
2017-12-31T12:14:45.694Z,2724.00
2017-12-31T12:15:45.615Z,3160.00
2017-12-31T12:16:45.637Z,3500.00
2017-12-31T12:17:45.586Z,3608.00
2017-12-31T12:18:45.581Z,3272.00
2017-12-31T12:19:45.571Z,2648.00
2017-12-31T12:20:45.576Z,2276.00
2017-12-31T12:21:45.615Z,1768.00
2017-12-31T12:22:45.548Z,2172.00
2017-12-31T12:23:45.535Z,2468.00
2017-12-31T12:24:45.537Z,4360.00
2017-12-31T12:25:45.528Z,4552.00
2017-12-31T12:26:45.547Z,3836.00
2017-12-31T12:27:45.538Z,2668.00
2017-12-31T12:28:45.538Z,2128.00
2017-12-31T12:29:45.546Z,4272.00
2017-12-31T12:30:45.515Z,3860.00
2017-12-31T12:31:45.494Z,3740.00
2017-12-31T12:32:45.484Z,2600.00
2017-12-31T12:33:45.472Z,2300.00
2017-12-31T12:34:45.468Z,1736.00
2017-12-31T12:35:45.470Z,2116.00
2017-12-31T12:36:45.466Z,2160.00
2017-12-31T12:37:45.599Z,2548.00
2017-12-31T12:38:45.492Z,2628.00
2017-12-31T12:39:45.459Z,3496.00
2017-12-31T12:40:45.457Z,2556.00
2017-12-31T12:41:45.433Z,3152.00
2017-12-31T12:42:45.436Z,3320.00
2017-12-31T12:43:45.409Z,2924.00
2017-12-31T12:44:45.409Z,2416.00
2017-12-31T12:45:45.398Z,2348.00
2017-12-31T12:46:45.387Z,2712.00
2017-12-31T12:47:45.377Z,3388.00
2017-12-31T12:48:45.373Z,3648.00
2017-12-31T12:49:47.309Z,2684.00
2017-12-31T12:50:45.392Z,3612.00
2017-12-31T12:51:45.355Z,4060.00
2017-12-31T12:52:45.339Z,3496.00